sensor_id;sensor_type;location;lat;lon;timestamp;pressure;altitude;pressure_sealevel;temperature;humidity
15444;BME280;7822;48.146;11.576;2024-02-16T00:00:10;95037.34;;;14.67;59.06
15444;BME280;7822;48.146;11.576;2024-02-16T00:02:39;95025.78;;;14.70;58.99
15444;BME280;7822;48.146;11.576;2024-02-16T00:05:07;95030.19;;;14.69;59.02
15444;BME280;7822;48.146;11.576;2024-02-16T00:07:36;95027.59;;;14.69;59.40
15444;BME280;7822;48.146;11.576;2024-02-16T00:10:05;95024.97;;;14.69;59.12
15444;BME280;7822;48.146;11.576;2024-02-16T00:12:33;95032.00;;;14.69;59.17
15444;BME280;7822;48.146;11.576;2024-02-16T00:15:02;95026.78;;;14.69;59.06
15444;BME280;7822;48.146;11.576;2024-02-16T00:17:30;95024.19;;;14.69;59.00
15444;BME280;7822;48.146;11.576;2024-02-16T00:19:58;95023.34;;;14.68;59.12
15444;BME280;7822;48.146;11.576;2024-02-16T00:22:25;95030.34;;;14.68;59.21
15444;BME280;7822;48.146;11.576;2024-02-16T00:24:53;95020.72;;;14.68;59.17
15444;BME280;7822;48.146;11.576;2024-02-16T00:27:20;95018.28;;;14.67;59.06
15444;BME280;7822;48.146;11.576;2024-02-16T00:29:48;95013.88;;;14.67;59.00
15444;BME280;7822;48.146;11.576;2024-02-16T00:32:17;95013.88;;;14.67;58.92
15444;BME280;7822;48.146;11.576;2024-02-16T00:34:45;95018.28;;;14.67;58.96
15444;BME280;7822;48.146;11.576;2024-02-16T00:37:13;95014.84;;;14.66;59.00
15444;BME280;7822;48.146;11.576;2024-02-16T00:39:40;95017.47;;;14.66;58.92
15444;BME280;7822;48.146;11.576;2024-02-16T00:42:08;95020.91;;;14.67;58.97
15444;BME280;7822;48.146;11.576;2024-02-16T00:44:37;95018.28;;;14.67;58.86
15444;BME280;7822;48.146;11.576;2024-02-16T00:47:05;95011.41;;;14.66;58.92
15444;BME280;7822;48.146;11.576;2024-02-16T00:49:34;95008.81;;;14.66;58.80
15444;BME280;7822;48.146;11.576;2024-02-16T00:52:02;95010.59;;;14.65;58.82
15444;BME280;7822;48.146;11.576;2024-02-16T00:54:31;95013.19;;;14.65;58.68
15444;BME280;7822;48.146;11.576;2024-02-16T00:56:58;95005.38;;;14.65;58.47
15444;BME280;7822;48.146;11.576;2024-02-16T00:59:29;95010.59;;;14.65;58.74
15444;BME280;7822;48.146;11.576;2024-02-16T01:01:57;95010.75;;;14.64;58.82
15444;BME280;7822;48.146;11.576;2024-02-16T01:04:25;95010.75;;;14.64;58.64
15444;BME280;7822;48.146;11.576;2024-02-16T01:06:54;95007.31;;;14.63;58.71
15444;BME280;7822;48.146;11.576;2024-02-16T01:09:22;95015.97;;;14.64;58.72
15444;BME280;7822;48.146;11.576;2024-02-16T01:11:49;95011.72;;;14.63;58.73
15444;BME280;7822;48.146;11.576;2024-02-16T01:14:17;95018.59;;;14.64;58.84
15444;BME280;7822;48.146;11.576;2024-02-16T01:16:45;95014.31;;;14.63;58.64
15444;BME280;7822;48.146;11.576;2024-02-16T01:19:13;95008.31;;;14.62;58.56
15444;BME280;7822;48.146;11.576;2024-02-16T01:21:41;95008.31;;;14.62;58.46
15444;BME280;7822;48.146;11.576;2024-02-16T01:24:09;95013.53;;;14.62;58.62
15444;BME280;7822;48.146;11.576;2024-02-16T01:26:37;95012.53;;;14.63;58.54
15444;BME280;7822;48.146;11.576;2024-02-16T01:29:04;95013.38;;;14.64;58.54
15444;BME280;7822;48.146;11.576;2024-02-16T01:31:33;95020.38;;;14.63;58.54
15444;BME280;7822;48.146;11.576;2024-02-16T01:34:01;95020.38;;;14.63;58.52
15444;BME280;7822;48.146;11.576;2024-02-16T01:36:29;95021.34;;;14.62;58.61
15444;BME280;7822;48.146;11.576;2024-02-16T01:38:57;95016.94;;;14.63;58.63
15444;BME280;7822;48.146;11.576;2024-02-16T01:41:26;95016.13;;;14.62;58.62
15444;BME280;7822;48.146;11.576;2024-02-16T01:43:53;95012.69;;;14.62;58.61
15444;BME280;7822;48.146;11.576;2024-02-16T01:46:22;95014.31;;;14.63;58.77
15444;BME280;7822;48.146;11.576;2024-02-16T01:48:50;95007.31;;;14.63;58.72
15444;BME280;7822;48.146;11.576;2024-02-16T01:51:18;95003.88;;;14.63;58.54
15444;BME280;7822;48.146;11.576;2024-02-16T01:53:46;95004.88;;;14.62;58.81
15444;BME280;7822;48.146;11.576;2024-02-16T01:56:14;95005.69;;;14.62;58.44
15444;BME280;7822;48.146;11.576;2024-02-16T01:58:43;95010.09;;;14.62;58.53
15444;BME280;7822;48.146;11.576;2024-02-16T02:01:10;95011.03;;;14.61;58.42
15444;BME280;7822;48.146;11.576;2024-02-16T02:03:38;95004.03;;;14.61;58.16
15444;BME280;7822;48.146;11.576;2024-02-16T02:06:05;95005.81;;;14.61;58.43
15444;BME280;7822;48.146;11.576;2024-02-16T02:08:34;95009.25;;;14.61;58.29
15444;BME280;7822;48.146;11.576;2024-02-16T02:11:02;95008.59;;;14.59;58.18
15444;BME280;7822;48.146;11.576;2024-02-16T02:13:31;95006.94;;;14.58;58.27
15444;BME280;7822;48.146;11.576;2024-02-16T02:16:00;95000.94;;;14.58;57.99
15444;BME280;7822;48.146;11.576;2024-02-16T02:18:29;94997.50;;;14.57;58.04
15444;BME280;7822;48.146;11.576;2024-02-16T02:20:57;94995.69;;;14.58;58.11
15444;BME280;7822;48.146;11.576;2024-02-16T02:23:26;95008.59;;;14.59;57.88
15444;BME280;7822;48.146;11.576;2024-02-16T02:25:53;94993.09;;;14.58;58.09
15444;BME280;7822;48.146;11.576;2024-02-16T02:28:21;94998.97;;;14.60;58.28
15444;BME280;7822;48.146;11.576;2024-02-16T02:30:50;94991.97;;;14.60;58.19
15444;BME280;7822;48.146;11.576;2024-02-16T02:33:19;94985.09;;;14.59;57.94
15444;BME280;7822;48.146;11.576;2024-02-16T02:35:47;94990.47;;;14.58;58.24
15444;BME280;7822;48.146;11.576;2024-02-16T02:38:15;94998.16;;;14.59;58.03
15444;BME280;7822;48.146;11.576;2024-02-16T02:40:44;94990.47;;;14.58;58.22
15444;BME280;7822;48.146;11.576;2024-02-16T02:43:12;94983.59;;;14.57;58.24
15444;BME280;7822;48.146;11.576;2024-02-16T02:45:40;94983.59;;;14.57;57.85
15444;BME280;7822;48.146;11.576;2024-02-16T02:48:07;94994.88;;;14.57;58.09
15444;BME280;7822;48.146;11.576;2024-02-16T02:50:35;94994.88;;;14.57;58.08
15444;BME280;7822;48.146;11.576;2024-02-16T02:53:03;94997.50;;;14.57;58.16
15444;BME280;7822;48.146;11.576;2024-02-16T02:55:30;94995.53;;;14.59;57.90
15444;BME280;7822;48.146;11.576;2024-02-16T02:57:59;95000.94;;;14.58;57.71
15444;BME280;7822;48.146;11.576;2024-02-16T03:00:27;94998.31;;;14.58;58.13
15444;BME280;7822;48.146;11.576;2024-02-16T03:02:54;95001.72;;;14.58;58.07
15444;BME280;7822;48.146;11.576;2024-02-16T03:05:22;95006.16;;;14.58;57.86
15444;BME280;7822;48.146;11.576;2024-02-16T03:07:49;94996.66;;;14.57;58.21
15444;BME280;7822;48.146;11.576;2024-02-16T03:10:17;94996.50;;;14.58;58.01
15444;BME280;7822;48.146;11.576;2024-02-16T03:12:48;94996.50;;;14.58;58.23
15444;BME280;7822;48.146;11.576;2024-02-16T03:15:17;95000.75;;;14.59;58.09
15444;BME280;7822;48.146;11.576;2024-02-16T03:17:45;95005.97;;;14.59;58.20
15444;BME280;7822;48.146;11.576;2024-02-16T03:20:13;95003.38;;;14.59;58.14
15444;BME280;7822;48.146;11.576;2024-02-16T03:22:40;95002.72;;;14.57;58.16
15444;BME280;7822;48.146;11.576;2024-02-16T03:25:08;95006.94;;;14.58;58.04
15444;BME280;7822;48.146;11.576;2024-02-16T03:27:36;94988.66;;;14.58;58.01
15444;BME280;7822;48.146;11.576;2024-02-16T03:30:04;94999.09;;;14.58;58.03
15444;BME280;7822;48.146;11.576;2024-02-16T03:32:33;95004.34;;;14.58;57.97
15444;BME280;7822;48.146;11.576;2024-02-16T03:35:00;95005.97;;;14.59;58.09
15444;BME280;7822;48.146;11.576;2024-02-16T03:37:28;95006.94;;;14.58;57.99
15444;BME280;7822;48.146;11.576;2024-02-16T03:39:56;95001.72;;;14.58;58.14
15444;BME280;7822;48.146;11.576;2024-02-16T03:42:24;95001.72;;;14.58;58.21
15444;BME280;7822;48.146;11.576;2024-02-16T03:44:52;95011.38;;;14.58;58.05
15444;BME280;7822;48.146;11.576;2024-02-16T03:47:19;95000.75;;;14.59;58.06
15444;BME280;7822;48.146;11.576;2024-02-16T03:49:48;95011.38;;;14.58;58.02
15444;BME280;7822;48.146;11.576;2024-02-16T03:52:16;95014.63;;;14.60;57.82
15444;BME280;7822;48.146;11.576;2024-02-16T03:54:43;95006.94;;;14.58;58.10
15444;BME280;7822;48.146;11.576;2024-02-16T03:57:14;95013.81;;;14.59;58.10
15444;BME280;7822;48.146;11.576;2024-02-16T03:59:43;95016.44;;;14.59;57.99
15444;BME280;7822;48.146;11.576;2024-02-16T04:02:10;95012.31;;;14.57;58.28
15444;BME280;7822;48.146;11.576;2024-02-16T04:04:39;95011.38;;;14.58;58.13
15444;BME280;7822;48.146;11.576;2024-02-16T04:07:08;95020.81;;;14.59;58.15
15444;BME280;7822;48.146;11.576;2024-02-16T04:09:36;95017.38;;;14.58;58.29
15444;BME280;7822;48.146;11.576;2024-02-16T04:12:04;95027.81;;;14.58;58.12
15444;BME280;7822;48.146;11.576;2024-02-16T04:14:32;95026.88;;;14.59;58.27
15444;BME280;7822;48.146;11.576;2024-02-16T04:16:59;95022.59;;;14.58;58.08
15444;BME280;7822;48.146;11.576;2024-02-16T04:19:27;95025.22;;;14.58;58.11
15444;BME280;7822;48.146;11.576;2024-02-16T04:21:55;95027.03;;;14.58;58.13
15444;BME280;7822;48.146;11.576;2024-02-16T04:24:27;95038.25;;;14.58;58.21
15444;BME280;7822;48.146;11.576;2024-02-16T04:26:55;95025.22;;;14.58;58.05
15444;BME280;7822;48.146;11.576;2024-02-16T04:29:22;95027.81;;;14.58;58.25
15444;BME280;7822;48.146;11.576;2024-02-16T04:31:50;95030.44;;;14.58;58.07
15444;BME280;7822;48.146;11.576;2024-02-16T04:34:18;95029.63;;;14.58;58.33
15444;BME280;7822;48.146;11.576;2024-02-16T04:36:45;95018.38;;;14.57;58.24
15444;BME280;7822;48.146;11.576;2024-02-16T04:39:13;95022.59;;;14.58;58.34
15444;BME280;7822;48.146;11.576;2024-02-16T04:41:42;95021.81;;;14.58;58.03
15444;BME280;7822;48.146;11.576;2024-02-16T04:44:10;95031.41;;;14.57;57.88
15444;BME280;7822;48.146;11.576;2024-02-16T04:46:39;95030.44;;;14.58;57.87
15444;BME280;7822;48.146;11.576;2024-02-16T04:49:06;95030.44;;;14.58;57.96
15444;BME280;7822;48.146;11.576;2024-02-16T04:51:34;95032.25;;;14.58;57.96
15444;BME280;7822;48.146;11.576;2024-02-16T04:54:01;95040.09;;;14.58;58.21
15444;BME280;7822;48.146;11.576;2024-02-16T04:56:30;95032.25;;;14.58;58.04
15444;BME280;7822;48.146;11.576;2024-02-16T04:58:59;95029.63;;;14.58;58.39
15444;BME280;7822;48.146;11.576;2024-02-16T05:01:26;95027.03;;;14.58;58.13
15444;BME280;7822;48.146;11.576;2024-02-16T05:03:55;95032.25;;;14.58;58.10
15444;BME280;7822;48.146;11.576;2024-02-16T05:06:23;95033.88;;;14.59;58.02
15444;BME280;7822;48.146;11.576;2024-02-16T05:08:51;95029.47;;;14.59;57.98
15444;BME280;7822;48.146;11.576;2024-02-16T05:11:20;95037.31;;;14.59;58.31
15444;BME280;7822;48.146;11.576;2024-02-16T05:13:48;95035.53;;;14.60;57.92
15444;BME280;7822;48.146;11.576;2024-02-16T05:16:17;95025.09;;;14.60;58.02
15444;BME280;7822;48.146;11.576;2024-02-16T05:18:45;95023.31;;;14.60;58.17
15444;BME280;7822;48.146;11.576;2024-02-16T05:21:12;95035.38;;;14.61;57.98
15444;BME280;7822;48.146;11.576;2024-02-16T05:23:40;95030.16;;;14.61;57.75
15444;BME280;7822;48.146;11.576;2024-02-16T05:26:07;95030.97;;;14.62;57.93
15444;BME280;7822;48.146;11.576;2024-02-16T05:28:35;95045.66;;;14.63;57.95
15444;BME280;7822;48.146;11.576;2024-02-16T05:31:04;95036.03;;;14.63;58.21
15444;BME280;7822;48.146;11.576;2024-02-16T05:33:42;95031.63;;;14.64;58.06
15444;BME280;7822;48.146;11.576;2024-02-16T05:36:10;95030.81;;;14.63;58.06
15444;BME280;7822;48.146;11.576;2024-02-16T05:38:37;95034.41;;;14.62;57.98
15444;BME280;7822;48.146;11.576;2024-02-16T05:41:09;95034.25;;;14.64;57.91
15444;BME280;7822;48.146;11.576;2024-02-16T05:43:37;95034.25;;;14.64;58.04
15444;BME280;7822;48.146;11.576;2024-02-16T05:46:05;95033.41;;;14.63;57.94
15444;BME280;7822;48.146;11.576;2024-02-16T05:48:32;95035.19;;;14.63;58.12
15444;BME280;7822;48.146;11.576;2024-02-16T05:51:05;95042.06;;;14.64;57.89
15444;BME280;7822;48.146;11.576;2024-02-16T05:53:33;95038.63;;;14.63;58.05
15444;BME280;7822;48.146;11.576;2024-02-16T05:56:01;95036.84;;;14.64;57.95
15444;BME280;7822;48.146;11.576;2024-02-16T05:58:28;95035.19;;;14.63;58.04
15444;BME280;7822;48.146;11.576;2024-02-16T06:00:56;95039.47;;;14.64;58.08
15444;BME280;7822;48.146;11.576;2024-02-16T06:03:24;95037.03;;;14.62;58.13
15444;BME280;7822;48.146;11.576;2024-02-16T06:05:53;95043.03;;;14.63;58.13
15444;BME280;7822;48.146;11.576;2024-02-16T06:08:22;95045.66;;;14.63;58.16
15444;BME280;7822;48.146;11.576;2024-02-16T06:10:51;95047.31;;;14.64;58.20
15444;BME280;7822;48.146;11.576;2024-02-16T06:13:20;95045.66;;;14.63;58.22
15444;BME280;7822;48.146;11.576;2024-02-16T06:15:48;95042.06;;;14.64;58.35
15444;BME280;7822;48.146;11.576;2024-02-16T06:18:16;95050.88;;;14.63;58.27
15444;BME280;7822;48.146;11.576;2024-02-16T06:20:43;95049.09;;;14.63;58.16
15444;BME280;7822;48.146;11.576;2024-02-16T06:23:11;95055.13;;;14.64;58.35
15444;BME280;7822;48.146;11.576;2024-02-16T06:25:40;95061.31;;;14.63;58.59
15444;BME280;7822;48.146;11.576;2024-02-16T06:28:08;95066.53;;;14.63;58.17
15444;BME280;7822;48.146;11.576;2024-02-16T06:30:36;95067.34;;;14.63;58.25
15444;BME280;7822;48.146;11.576;2024-02-16T06:33:03;95076.97;;;14.63;58.27
15444;BME280;7822;48.146;11.576;2024-02-16T06:35:31;95084.69;;;14.64;58.22
15444;BME280;7822;48.146;11.576;2024-02-16T06:37:59;95085.63;;;14.63;58.49
15444;BME280;7822;48.146;11.576;2024-02-16T06:40:26;95090.84;;;14.63;58.26
15444;BME280;7822;48.146;11.576;2024-02-16T06:42:55;95100.34;;;14.64;57.86
15444;BME280;7822;48.146;11.576;2024-02-16T06:45:23;95097.84;;;14.63;58.01
15444;BME280;7822;48.146;11.576;2024-02-16T06:47:52;95102.94;;;14.64;58.06
15444;BME280;7822;48.146;11.576;2024-02-16T06:50:19;95112.41;;;14.65;58.31
15444;BME280;7822;48.146;11.576;2024-02-16T06:52:47;95116.84;;;14.65;58.05
15444;BME280;7822;48.146;11.576;2024-02-16T06:55:14;95112.41;;;14.65;58.25
15444;BME280;7822;48.146;11.576;2024-02-16T06:57:42;95116.00;;;14.64;57.77
15444;BME280;7822;48.146;11.576;2024-02-16T07:00:13;95115.03;;;14.65;58.20
15444;BME280;7822;48.146;11.576;2024-02-16T07:02:42;95121.91;;;14.66;57.98
15444;BME280;7822;48.146;11.576;2024-02-16T07:05:10;95115.84;;;14.66;58.04
15444;BME280;7822;48.146;11.576;2024-02-16T07:07:38;95123.84;;;14.64;58.24
15444;BME280;7822;48.146;11.576;2024-02-16T07:10:06;95128.91;;;14.66;58.20
15444;BME280;7822;48.146;11.576;2024-02-16T07:12:39;95128.06;;;14.65;58.28
15444;BME280;7822;48.146;11.576;2024-02-16T07:15:07;95133.28;;;14.65;58.21
15444;BME280;7822;48.146;11.576;2024-02-16T07:17:37;95131.50;;;14.66;58.22
15444;BME280;7822;48.146;11.576;2024-02-16T07:20:05;95131.50;;;14.66;58.40
15444;BME280;7822;48.146;11.576;2024-02-16T07:22:33;95128.06;;;14.65;58.22
15444;BME280;7822;48.146;11.576;2024-02-16T07:25:00;95136.72;;;14.66;58.45
15444;BME280;7822;48.146;11.576;2024-02-16T07:27:29;95139.34;;;14.66;58.60
15444;BME280;7822;48.146;11.576;2024-02-16T07:29:57;95136.56;;;14.67;58.38
15444;BME280;7822;48.146;11.576;2024-02-16T07:32:24;95141.00;;;14.67;58.38
15444;BME280;7822;48.146;11.576;2024-02-16T07:34:53;95145.41;;;14.66;58.24
15444;BME280;7822;48.146;11.576;2024-02-16T07:37:21;95144.41;;;14.67;58.37
15444;BME280;7822;48.146;11.576;2024-02-16T07:39:48;95150.47;;;14.68;58.40
15444;BME280;7822;48.146;11.576;2024-02-16T07:42:17;95145.22;;;14.68;58.45
15444;BME280;7822;48.146;11.576;2024-02-16T07:44:45;95136.56;;;14.67;58.38
15444;BME280;7822;48.146;11.576;2024-02-16T07:47:12;95143.59;;;14.67;58.24
15444;BME280;7822;48.146;11.576;2024-02-16T07:49:40;95137.56;;;14.66;58.34
15444;BME280;7822;48.146;11.576;2024-02-16T07:52:11;95147.19;;;14.66;58.37
15444;BME280;7822;48.146;11.576;2024-02-16T07:54:38;95147.19;;;14.66;58.15
15444;BME280;7822;48.146;11.576;2024-02-16T07:57:06;95145.41;;;14.66;58.41
15444;BME280;7822;48.146;11.576;2024-02-16T07:59:34;95157.47;;;14.67;58.21
15444;BME280;7822;48.146;11.576;2024-02-16T08:02:01;95153.22;;;14.66;58.34
15444;BME280;7822;48.146;11.576;2024-02-16T08:04:29;95149.63;;;14.67;58.38
15444;BME280;7822;48.146;11.576;2024-02-16T08:06:56;95150.47;;;14.68;58.40
15444;BME280;7822;48.146;11.576;2024-02-16T08:09:26;95158.13;;;14.69;58.57
15444;BME280;7822;48.146;11.576;2024-02-16T08:11:53;95147.69;;;14.69;58.53
15444;BME280;7822;48.146;11.576;2024-02-16T08:14:21;95154.72;;;14.69;58.19
15444;BME280;7822;48.146;11.576;2024-02-16T08:16:48;95160.63;;;14.71;58.26
15444;BME280;7822;48.146;11.576;2024-02-16T08:19:33;95160.75;;;14.69;58.35
15444;BME280;7822;48.146;11.576;2024-02-16T08:22:01;95168.56;;;14.69;58.35
15444;BME280;7822;48.146;11.576;2024-02-16T08:24:31;95166.78;;;14.70;58.17
15444;BME280;7822;48.146;11.576;2024-02-16T08:26:59;95170.38;;;14.69;58.38
15444;BME280;7822;48.146;11.576;2024-02-16T08:29:30;95171.19;;;14.69;58.30
15444;BME280;7822;48.146;11.576;2024-02-16T08:32:11;95165.97;;;14.69;58.16
15444;BME280;7822;48.146;11.576;2024-02-16T08:34:46;95161.72;;;14.68;58.16
15444;BME280;7822;48.146;11.576;2024-02-16T08:37:22;95164.34;;;14.68;58.34
15444;BME280;7822;48.146;11.576;2024-02-16T08:42:54;95174.78;;;14.68;58.33
15444;BME280;7822;48.146;11.576;2024-02-16T08:45:33;95175.63;;;14.69;58.39
15444;BME280;7822;48.146;11.576;2024-02-16T08:48:21;95157.34;;;14.69;58.19
15444;BME280;7822;48.146;11.576;2024-02-16T08:50:55;95162.69;;;14.67;58.34
15444;BME280;7822;48.146;11.576;2024-02-16T08:53:27;95171.19;;;14.69;58.34
15444;BME280;7822;48.146;11.576;2024-02-16T08:55:58;95165.16;;;14.69;58.23
15444;BME280;7822;48.146;11.576;2024-02-16T08:58:45;95170.38;;;14.69;58.24
15444;BME280;7822;48.146;11.576;2024-02-16T09:01:34;95172.19;;;14.68;58.36
15444;BME280;7822;48.146;11.576;2024-02-16T09:04:13;95167.78;;;14.69;58.29
15444;BME280;7822;48.146;11.576;2024-02-16T09:06:58;95164.34;;;14.68;58.50
15444;BME280;7822;48.146;11.576;2024-02-16T09:10:08;95169.56;;;14.68;58.22
15444;BME280;7822;48.146;11.576;2024-02-16T09:13:24;95174.94;;;14.67;58.23
15444;BME280;7822;48.146;11.576;2024-02-16T09:16:12;95173.97;;;14.68;58.32
15444;BME280;7822;48.146;11.576;2024-02-16T09:19:16;95178.34;;;14.67;58.18
15444;BME280;7822;48.146;11.576;2024-02-16T09:22:24;95175.75;;;14.67;57.96
15444;BME280;7822;48.146;11.576;2024-02-16T09:25:37;95187.00;;;14.68;58.06
15444;BME280;7822;48.146;11.576;2024-02-16T09:28:41;95182.63;;;14.68;58.06
15444;BME280;7822;48.146;11.576;2024-02-16T09:31:54;95183.44;;;14.69;57.95
15444;BME280;7822;48.146;11.576;2024-02-16T09:35:06;95178.22;;;14.69;58.22
15444;BME280;7822;48.146;11.576;2024-02-16T09:38:19;95182.63;;;14.68;57.93
15444;BME280;7822;48.146;11.576;2024-02-16T09:41:32;95179.19;;;14.68;57.74
15444;BME280;7822;48.146;11.576;2024-02-16T09:44:40;95179.19;;;14.68;57.50
15444;BME280;7822;48.146;11.576;2024-02-16T09:47:45;95179.34;;;14.66;57.51
15444;BME280;7822;48.146;11.576;2024-02-16T09:50:26;95173.97;;;14.68;57.90
15444;BME280;7822;48.146;11.576;2024-02-16T09:52:54;95180.84;;;14.69;58.04
15444;BME280;7822;48.146;11.576;2024-02-16T09:55:23;95178.22;;;14.69;58.00
15444;BME280;7822;48.146;11.576;2024-02-16T09:57:58;95182.47;;;14.70;58.01
15444;BME280;7822;48.146;11.576;2024-02-16T10:00:25;95181.63;;;14.69;58.45
15444;BME280;7822;48.146;11.576;2024-02-16T10:02:54;95182.47;;;14.70;58.30
15444;BME280;7822;48.146;11.576;2024-02-16T10:05:22;95188.34;;;14.72;58.24
15444;BME280;7822;48.146;11.576;2024-02-16T10:07:49;95179.56;;;14.73;58.11
15444;BME280;7822;48.146;11.576;2024-02-16T10:10:21;95177.78;;;14.73;58.14
15444;BME280;7822;48.146;11.576;2024-02-16T10:12:49;95175.97;;;14.74;58.27
15444;BME280;7822;48.146;11.576;2024-02-16T10:15:20;95178.44;;;14.75;58.10
15444;BME280;7822;48.146;11.576;2024-02-16T10:17:59;95175.84;;;14.75;58.09
15444;BME280;7822;48.146;11.576;2024-02-16T10:20:27;95186.28;;;14.75;58.07
15444;BME280;7822;48.146;11.576;2024-02-16T10:23:04;95180.06;;;14.76;57.94
15444;BME280;7822;48.146;11.576;2024-02-16T10:25:32;95186.13;;;14.77;58.24
15444;BME280;7822;48.146;11.576;2024-02-16T10:28:02;95180.06;;;14.76;57.89
15444;BME280;7822;48.146;11.576;2024-02-16T10:30:34;95183.50;;;14.77;58.06
15444;BME280;7822;48.146;11.576;2024-02-16T10:33:03;95183.50;;;14.77;57.94
15444;BME280;7822;48.146;11.576;2024-02-16T10:35:31;95186.94;;;14.77;58.01
15444;BME280;7822;48.146;11.576;2024-02-16T10:38:00;95180.22;;;14.75;57.99
15444;BME280;7822;48.146;11.576;2024-02-16T10:40:31;95181.84;;;14.76;57.84
15444;BME280;7822;48.146;11.576;2024-02-16T10:43:00;95176.63;;;14.76;57.95
15444;BME280;7822;48.146;11.576;2024-02-16T10:45:29;95182.84;;;14.75;57.67
15444;BME280;7822;48.146;11.576;2024-02-16T10:47:57;95187.25;;;14.74;57.78
15444;BME280;7822;48.146;11.576;2024-02-16T10:50:26;95194.13;;;14.75;57.75
15444;BME280;7822;48.146;11.576;2024-02-16T10:52:54;95177.63;;;14.75;57.49
15444;BME280;7822;48.146;11.576;2024-02-16T10:55:23;95180.38;;;14.73;57.34
15444;BME280;7822;48.146;11.576;2024-02-16T10:57:50;95175.97;;;14.74;57.19
15444;BME280;7822;48.146;11.576;2024-02-16T11:00:19;95179.25;;;14.76;57.44
15444;BME280;7822;48.146;11.576;2024-02-16T11:02:50;95179.25;;;14.76;57.38
15444;BME280;7822;48.146;11.576;2024-02-16T11:05:18;95179.25;;;14.76;57.61
15444;BME280;7822;48.146;11.576;2024-02-16T11:07:47;95175.00;;;14.75;57.46
15444;BME280;7822;48.146;11.576;2024-02-16T11:10:14;95174.03;;;14.76;57.61
15444;BME280;7822;48.146;11.576;2024-02-16T11:12:42;95174.19;;;14.74;57.32
15444;BME280;7822;48.146;11.576;2024-02-16T11:15:12;95169.78;;;14.75;57.49
15444;BME280;7822;48.146;11.576;2024-02-16T11:17:40;95169.78;;;14.75;57.30
15444;BME280;7822;48.146;11.576;2024-02-16T11:20:08;95161.94;;;14.75;57.09
15444;BME280;7822;48.146;11.576;2024-02-16T11:22:36;95160.84;;;14.77;57.27
15444;BME280;7822;48.146;11.576;2024-02-16T11:25:06;95157.41;;;14.77;57.14
15444;BME280;7822;48.146;11.576;2024-02-16T11:27:35;95163.00;;;14.82;57.10
15444;BME280;7822;48.146;11.576;2024-02-16T11:30:03;95152.56;;;14.82;56.96
15444;BME280;7822;48.146;11.576;2024-02-16T11:32:32;95157.78;;;14.82;57.26
15444;BME280;7822;48.146;11.576;2024-02-16T11:35:04;95149.94;;;14.82;57.66
15444;BME280;7822;48.146;11.576;2024-02-16T11:37:32;95156.13;;;14.81;57.33
15444;BME280;7822;48.146;11.576;2024-02-16T11:39:59;95146.50;;;14.81;57.19
15444;BME280;7822;48.146;11.576;2024-02-16T11:42:28;95156.13;;;14.81;57.27
15444;BME280;7822;48.146;11.576;2024-02-16T11:44:56;95154.34;;;14.81;57.55
15444;BME280;7822;48.146;11.576;2024-02-16T11:47:24;95149.13;;;14.81;57.36
15444;BME280;7822;48.146;11.576;2024-02-16T11:50:02;95145.53;;;14.82;57.02
15444;BME280;7822;48.146;11.576;2024-02-16T11:52:30;95147.34;;;14.82;57.67
15444;BME280;7822;48.146;11.576;2024-02-16T11:54:58;95149.94;;;14.82;57.71
15444;BME280;7822;48.146;11.576;2024-02-16T11:57:29;95153.38;;;14.82;57.63
15444;BME280;7822;48.146;11.576;2024-02-16T11:59:57;95148.16;;;14.82;57.66
15444;BME280;7822;48.146;11.576;2024-02-16T12:02:25;95148.16;;;14.82;57.69
15444;BME280;7822;48.146;11.576;2024-02-16T12:04:57;95142.94;;;14.82;57.68
15444;BME280;7822;48.146;11.576;2024-02-16T12:07:29;95148.16;;;14.82;57.59
15444;BME280;7822;48.146;11.576;2024-02-16T12:09:57;95147.16;;;14.83;57.59
15444;BME280;7822;48.146;11.576;2024-02-16T12:12:25;95144.41;;;14.85;57.39
15444;BME280;7822;48.146;11.576;2024-02-16T12:14:55;95147.00;;;14.85;57.66
15444;BME280;7822;48.146;11.576;2024-02-16T12:17:23;95144.56;;;14.83;57.91
15444;BME280;7822;48.146;11.576;2024-02-16T12:19:51;95150.59;;;14.84;57.71
15444;BME280;7822;48.146;11.576;2024-02-16T12:22:19;95154.06;;;14.84;57.76
15444;BME280;7822;48.146;11.576;2024-02-16T12:24:47;95156.66;;;14.84;57.73
15444;BME280;7822;48.146;11.576;2024-02-16T12:27:15;95152.41;;;14.83;57.73
15444;BME280;7822;48.146;11.576;2024-02-16T12:29:42;95155.84;;;14.84;58.02
15444;BME280;7822;48.146;11.576;2024-02-16T12:32:12;95151.28;;;14.86;57.71
15444;BME280;7822;48.146;11.576;2024-02-16T12:34:44;95145.22;;;14.85;57.88
15444;BME280;7822;48.146;11.576;2024-02-16T12:37:12;95153.88;;;14.86;58.02
15444;BME280;7822;48.146;11.576;2024-02-16T12:39:40;95152.09;;;14.87;57.94
15444;BME280;7822;48.146;11.576;2024-02-16T12:42:08;95149.34;;;14.88;57.86
15444;BME280;7822;48.146;11.576;2024-02-16T12:44:35;95149.34;;;14.88;57.57
15444;BME280;7822;48.146;11.576;2024-02-16T12:47:03;95160.59;;;14.89;57.67
15444;BME280;7822;48.146;11.576;2024-02-16T12:49:32;95154.41;;;14.90;57.70
15444;BME280;7822;48.146;11.576;2024-02-16T12:52:02;95150.00;;;14.90;57.68
15444;BME280;7822;48.146;11.576;2024-02-16T12:54:29;95155.22;;;14.90;57.99
15444;BME280;7822;48.146;11.576;2024-02-16T12:56:58;95148.22;;;14.91;57.88
15444;BME280;7822;48.146;11.576;2024-02-16T12:59:25;95150.00;;;14.90;57.55
15444;BME280;7822;48.146;11.576;2024-02-16T13:01:53;95151.78;;;14.90;58.04
15444;BME280;7822;48.146;11.576;2024-02-16T13:04:21;95147.38;;;14.90;57.78
15444;BME280;7822;48.146;11.576;2024-02-16T13:06:50;95151.66;;;14.91;57.62
15444;BME280;7822;48.146;11.576;2024-02-16T13:09:19;95155.06;;;14.92;57.68
15444;BME280;7822;48.146;11.576;2024-02-16T13:11:47;95156.06;;;14.91;57.95
15444;BME280;7822;48.146;11.576;2024-02-16T13:14:21;95152.63;;;14.90;57.74
15444;BME280;7822;48.146;11.576;2024-02-16T13:16:48;95157.84;;;14.90;57.65
15444;BME280;7822;48.146;11.576;2024-02-16T13:19:16;95161.28;;;14.91;57.83